createdAt,value
2023-04-22T00:01:56.199Z,90.91
2023-04-22T00:04:23.105Z,91.25
2023-04-22T00:06:57.123Z,91.22
2023-04-22T00:09:38.314Z,90.94
2023-04-22T00:12:12.526Z,90.89
2023-04-22T00:14:46.021Z,91.15
2023-04-22T00:17:19.130Z,91.30
2023-04-22T00:19:45.842Z,91.39
2023-04-22T00:22:19.024Z,91.60
2023-04-22T00:24:45.943Z,91.37
2023-04-22T00:27:19.008Z,91.72
2023-04-22T00:29:52.114Z,91.54
2023-04-22T00:32:19.222Z,91.68
2023-04-22T00:34:52.147Z,91.88
2023-04-22T00:37:19.040Z,91.83
2023-04-22T00:39:52.037Z,91.94
2023-04-22T00:42:25.038Z,91.97
2023-04-22T00:44:52.893Z,92.26
2023-04-22T00:47:26.127Z,92.00
2023-04-22T00:50:01.052Z,92.53
2023-04-22T00:52:27.851Z,91.79
2023-04-22T00:55:01.057Z,92.11
2023-04-22T00:57:31.147Z,92.30
2023-04-22T01:00:05.049Z,92.09
2023-04-22T01:02:32.231Z,92.36
2023-04-22T01:05:06.132Z,92.17
2023-04-22T01:07:32.895Z,91.90
2023-04-22T01:10:13.034Z,92.05
2023-04-22T01:12:46.054Z,92.22
2023-04-22T01:15:20.255Z,91.84
2023-04-22T01:17:48.058Z,91.99
2023-04-22T01:20:22.135Z,91.92
2023-04-22T01:22:57.176Z,92.07
2023-04-22T01:25:27.403Z,92.03
2023-04-22T01:28:01.101Z,92.12
2023-04-22T01:30:35.067Z,92.57
2023-04-22T01:33:08.121Z,92.28
2023-04-22T01:35:37.997Z,92.72
2023-04-22T01:38:13.104Z,92.42
2023-04-22T01:40:40.195Z,92.81
2023-04-22T01:43:13.033Z,92.82
2023-04-22T01:45:46.208Z,92.44
2023-04-22T01:48:19.215Z,92.57
2023-04-22T01:50:53.114Z,92.37
2023-04-22T01:53:20.022Z,92.58
2023-04-22T01:55:54.122Z,92.76
2023-04-22T01:58:20.867Z,92.79
2023-04-22T02:00:54.148Z,92.94
2023-04-22T02:03:27.600Z,92.90
2023-04-22T02:06:01.115Z,93.10
2023-04-22T02:08:27.897Z,92.99
2023-04-22T02:11:08.094Z,93.10
2023-04-22T02:13:46.260Z,92.73
2023-04-22T02:16:20.122Z,93.13
2023-04-22T02:18:53.036Z,92.79
2023-04-22T02:21:26.074Z,92.85
2023-04-22T02:23:52.810Z,92.87
2023-04-22T02:26:26.162Z,93.07
2023-04-22T02:28:53.349Z,93.25
2023-04-22T02:31:27.250Z,93.20
2023-04-22T02:33:54.147Z,93.21
2023-04-22T02:36:20.952Z,92.99
2023-04-22T02:38:54.143Z,93.71
2023-04-22T02:41:28.085Z,93.34
2023-04-22T02:44:01.076Z,93.64
2023-04-22T02:46:27.933Z,93.41
2023-04-22T02:49:01.164Z,93.56
2023-04-22T02:51:28.462Z,93.17
2023-04-22T02:53:55.262Z,93.12
2023-04-22T02:56:28.088Z,93.09
2023-04-22T02:58:54.812Z,93.02
2023-04-22T03:01:28.314Z,93.69
2023-04-22T03:04:01.330Z,93.47
2023-04-22T03:06:35.179Z,93.39
2023-04-22T03:09:08.196Z,93.69
2023-04-22T03:11:48.158Z,93.39
2023-04-22T03:14:14.919Z,93.36
2023-04-22T03:16:42.198Z,93.18
2023-04-22T03:19:15.138Z,93.52
2023-04-22T03:21:48.149Z,93.28
2023-04-22T03:24:21.202Z,93.42
2023-04-22T03:26:48.037Z,93.83
2023-04-22T03:29:21.127Z,93.81
2023-04-22T03:31:47.927Z,93.45
2023-04-22T03:34:21.168Z,93.79
2023-04-22T03:36:47.942Z,93.47
2023-04-22T03:39:28.163Z,93.80
2023-04-22T03:41:54.879Z,93.66
2023-04-22T03:44:28.140Z,94.07
2023-04-22T03:46:54.910Z,93.95
2023-04-22T03:49:29.180Z,94.11
2023-04-22T03:51:56.262Z,94.12
2023-04-22T03:54:29.199Z,94.40
2023-04-22T03:56:56.109Z,94.36
2023-04-22T03:59:29.168Z,94.29
2023-04-22T04:02:02.325Z,94.06
2023-04-22T04:04:30.149Z,93.84
2023-04-22T04:07:04.232Z,93.87
2023-04-22T04:09:37.745Z,93.90
2023-04-22T04:12:18.165Z,93.86
2023-04-22T04:14:44.937Z,94.16
2023-04-22T04:17:21.196Z,94.23
2023-04-22T04:19:48.142Z,94.18
2023-04-22T04:22:22.213Z,94.42
2023-04-22T04:24:55.162Z,94.52
2023-04-22T04:27:24.239Z,94.48
2023-04-22T04:29:57.227Z,94.54
2023-04-22T04:32:25.165Z,94.56
2023-04-22T04:34:59.168Z,94.52
2023-04-22T04:37:26.554Z,94.39
2023-04-22T04:40:00.173Z,94.30
2023-04-22T04:42:26.892Z,94.61
2023-04-22T04:45:00.285Z,94.57
2023-04-22T04:47:43.356Z,94.19
2023-04-22T04:50:23.204Z,94.14
2023-04-22T04:52:50.024Z,94.27
2023-04-22T04:55:24.144Z,94.27
2023-04-22T04:57:50.853Z,94.48
2023-04-22T05:00:24.187Z,94.57
2023-04-22T05:02:58.451Z,94.36
2023-04-22T05:05:32.218Z,94.07
2023-04-22T05:08:05.201Z,94.41
2023-04-22T05:10:38.335Z,94.23
2023-04-22T05:13:11.312Z,94.32
2023-04-22T05:15:38.302Z,94.26
2023-04-22T05:18:13.195Z,94.50
2023-04-22T05:20:40.268Z,94.33
2023-04-22T05:23:13.193Z,94.51
2023-04-22T05:25:39.919Z,94.29
2023-04-22T05:28:13.206Z,94.30
2023-04-22T05:30:40.012Z,94.43
2023-04-22T05:33:15.281Z,94.57
2023-04-22T05:35:49.293Z,94.08
2023-04-22T05:38:16.069Z,94.46
2023-04-22T05:40:49.162Z,94.56
2023-04-22T05:43:23.196Z,94.47
2023-04-22T05:45:56.324Z,94.32
2023-04-22T05:48:23.218Z,94.33
2023-04-22T05:50:56.316Z,94.18
2023-04-22T05:53:23.207Z,94.47
2023-04-22T05:55:57.202Z,94.54
2023-04-22T05:58:24.001Z,94.67
2023-04-22T06:00:57.191Z,94.67
2023-04-22T06:03:24.176Z,94.45
2023-04-22T06:05:51.311Z,94.78
2023-04-22T06:08:24.284Z,94.48
2023-04-22T06:11:11.272Z,94.68
2023-04-22T06:13:38.230Z,94.83
2023-04-22T06:16:13.223Z,94.54
2023-04-22T06:18:46.159Z,94.50
2023-04-22T06:21:12.950Z,94.42
2023-04-22T06:23:46.175Z,94.62
2023-04-22T06:26:13.318Z,94.62
2023-04-22T06:28:47.263Z,94.53
2023-04-22T06:31:14.160Z,94.41
2023-04-22T06:33:47.232Z,94.56
2023-04-22T06:36:21.227Z,94.30
2023-04-22T06:38:54.273Z,94.33
2023-04-22T06:41:29.273Z,94.21
2023-04-22T06:43:56.275Z,94.26
2023-04-22T06:46:23.142Z,94.60
2023-04-22T06:48:56.262Z,94.56
2023-04-22T06:51:29.218Z,94.49
2023-04-22T06:53:58.541Z,94.28
2023-04-22T06:56:32.272Z,94.32
2023-04-22T06:58:59.228Z,94.32
2023-04-22T07:01:33.352Z,94.23
2023-04-22T07:04:07.243Z,94.21
2023-04-22T07:06:34.102Z,94.38
2023-04-22T07:09:07.285Z,94.04
2023-04-22T07:11:40.686Z,93.71
2023-04-22T07:14:14.311Z,93.55
2023-04-22T07:16:41.196Z,93.43
2023-04-22T07:19:14.227Z,93.32
2023-04-22T07:21:42.311Z,92.81
2023-04-22T07:24:19.303Z,92.85
2023-04-22T07:26:46.101Z,92.56
2023-04-22T07:29:22.227Z,92.35
2023-04-22T07:31:48.996Z,92.13
2023-04-22T07:34:22.310Z,92.43
2023-04-22T07:36:53.888Z,92.09
2023-04-22T07:39:27.224Z,91.98
2023-04-22T07:41:54.127Z,92.38
2023-04-22T07:44:28.233Z,91.61
2023-04-22T07:46:55.842Z,91.33
2023-04-22T07:49:29.253Z,91.47
2023-04-22T07:52:03.296Z,90.88
2023-04-22T07:54:36.328Z,90.64
2023-04-22T07:57:10.330Z,90.05
2023-04-22T07:59:37.365Z,89.14
2023-04-22T08:02:11.530Z,89.39
2023-04-22T08:04:38.660Z,89.06
2023-04-22T08:07:30.921Z,88.62
2023-04-22T08:10:06.450Z,88.82
2023-04-22T08:12:40.473Z,88.12
2023-04-22T08:15:14.330Z,87.24
2023-04-22T08:17:47.349Z,87.01
2023-04-22T08:20:15.758Z,86.89
2023-04-22T08:22:52.305Z,87.23
2023-04-22T08:25:19.550Z,86.98
2023-04-22T08:27:53.364Z,85.49
2023-04-22T08:30:26.417Z,84.58
2023-04-22T08:33:00.431Z,84.46
2023-04-22T08:35:34.289Z,84.29
2023-04-22T08:38:07.362Z,83.56
2023-04-22T08:40:42.431Z,82.94
2023-04-22T08:43:11.280Z,80.48
2023-04-22T08:45:46.296Z,80.40
2023-04-22T08:48:14.074Z,79.34
2023-04-22T08:50:51.288Z,79.59
2023-04-22T08:53:24.990Z,79.94
2023-04-22T08:55:52.832Z,79.09
2023-04-22T08:58:26.370Z,78.11
2023-04-22T09:00:53.488Z,78.14
2023-04-22T09:03:33.431Z,75.27
2023-04-22T09:06:11.474Z,72.60
2023-04-22T09:08:39.333Z,72.15
2023-04-22T09:11:19.360Z,73.28
2023-04-22T09:13:56.829Z,74.07
2023-04-22T09:16:30.339Z,71.82
2023-04-22T09:19:03.293Z,71.73
2023-04-22T09:21:33.604Z,70.89
2023-04-22T09:24:09.366Z,70.75
2023-04-22T09:26:41.534Z,71.92
2023-04-22T09:29:17.324Z,71.07
2023-04-22T09:31:53.372Z,71.69
2023-04-22T09:34:29.394Z,68.68
2023-04-22T09:36:56.418Z,68.99
2023-04-22T09:39:30.313Z,68.37
2023-04-22T09:41:57.819Z,67.53
2023-04-22T09:44:34.346Z,66.60
2023-04-22T09:47:01.391Z,69.32
2023-04-22T09:49:35.352Z,68.48
2023-04-22T09:52:08.278Z,67.60
2023-04-22T09:54:44.280Z,66.68
2023-04-22T09:57:22.365Z,67.28
2023-04-22T09:59:53.146Z,62.92
2023-04-22T10:02:36.415Z,62.60
2023-04-22T10:05:11.381Z,60.90
2023-04-22T10:07:46.323Z,61.77
2023-04-22T10:10:20.454Z,61.95
2023-04-22T10:12:55.441Z,63.53
2023-04-22T10:15:23.186Z,58.14
2023-04-22T10:18:00.341Z,59.52
2023-04-22T10:20:36.363Z,59.22
2023-04-22T10:23:05.550Z,58.71
2023-04-22T10:25:39.379Z,58.84
2023-04-22T10:28:08.967Z,58.48
2023-04-22T10:30:44.446Z,56.55
2023-04-22T10:33:38.337Z,54.50
2023-04-22T10:36:27.442Z,54.79
2023-04-22T10:38:54.194Z,54.11
2023-04-22T10:41:37.414Z,54.71
2023-04-22T10:44:08.678Z,54.91
2023-04-22T10:46:46.360Z,53.66
2023-04-22T10:49:18.052Z,52.19
2023-04-22T10:51:53.356Z,55.23
2023-04-22T10:54:35.428Z,53.54
2023-04-22T10:57:03.232Z,53.45
2023-04-22T10:59:38.513Z,55.44
2023-04-22T11:02:09.757Z,54.53
2023-04-22T11:04:44.306Z,53.72
2023-04-22T11:07:33.412Z,54.34
2023-04-22T11:10:07.239Z,53.16
2023-04-22T11:12:46.468Z,49.81
2023-04-22T11:15:26.393Z,50.58
2023-04-22T11:18:01.488Z,50.54
2023-04-22T11:20:35.400Z,51.69
2023-04-22T11:23:03.486Z,52.75
2023-04-22T11:25:37.389Z,53.34
2023-04-22T11:28:04.319Z,52.66
2023-04-22T11:30:38.437Z,48.78
2023-04-22T11:33:05.467Z,48.41
2023-04-22T11:35:41.620Z,49.75
2023-04-22T11:38:15.401Z,47.95
2023-04-22T11:40:46.167Z,47.73
2023-04-22T11:43:20.494Z,47.99
2023-04-22T11:45:47.753Z,48.54
2023-04-22T11:48:21.483Z,45.83
2023-04-22T11:50:48.961Z,44.89
2023-04-22T11:53:27.399Z,46.51
2023-04-22T11:55:54.209Z,45.47
2023-04-22T11:58:34.433Z,46.11
2023-04-22T12:01:01.524Z,46.75
2023-04-22T12:03:36.608Z,47.28
2023-04-22T12:06:06.707Z,45.73
2023-04-22T12:08:47.449Z,44.95
2023-04-22T12:11:20.508Z,43.10
2023-04-22T12:14:01.458Z,44.52
2023-04-22T12:16:28.325Z,44.09
2023-04-22T12:19:02.402Z,45.29
2023-04-22T12:21:38.375Z,44.53
2023-04-22T12:24:18.519Z,44.80
2023-04-22T12:26:51.465Z,45.30
2023-04-22T12:29:33.464Z,45.30
2023-04-22T12:32:07.424Z,43.58
2023-04-22T12:34:40.599Z,44.49
2023-04-22T12:37:07.683Z,43.36
2023-04-22T12:39:41.844Z,42.84
2023-04-22T12:42:09.031Z,43.32
2023-04-22T12:44:43.455Z,43.54
2023-04-22T12:47:16.510Z,43.96
2023-04-22T12:49:44.950Z,46.29
2023-04-22T12:52:20.502Z,46.14
2023-04-22T12:54:53.536Z,45.22
2023-04-22T12:57:26.447Z,46.60
2023-04-22T12:59:53.297Z,44.74
2023-04-22T13:02:26.683Z,47.01
2023-04-22T13:04:53.760Z,46.29
2023-04-22T13:07:27.612Z,47.51
2023-04-22T13:09:54.713Z,47.31
2023-04-22T13:12:34.559Z,46.97
2023-04-22T13:15:02.578Z,47.18
2023-04-22T13:17:36.526Z,47.12
2023-04-22T13:20:12.463Z,48.98
2023-04-22T13:22:47.465Z,49.63
2023-04-22T13:25:14.334Z,51.15
2023-04-22T13:27:47.514Z,49.57
2023-04-22T13:30:28.585Z,49.82
2023-04-22T13:32:55.464Z,49.56
2023-04-22T13:35:28.459Z,49.19
2023-04-22T13:37:55.466Z,48.64
2023-04-22T13:40:29.587Z,48.52
2023-04-22T13:42:56.689Z,47.36
2023-04-22T13:45:30.571Z,47.91
2023-04-22T13:47:57.618Z,48.93
2023-04-22T13:50:31.449Z,47.97
2023-04-22T13:52:58.385Z,48.11
2023-04-22T13:55:33.510Z,48.88
2023-04-22T13:58:01.397Z,48.78
2023-04-22T14:00:34.558Z,48.88
2023-04-22T14:03:01.693Z,49.56
2023-04-22T14:05:35.492Z,49.41
2023-04-22T14:08:08.443Z,49.53
2023-04-22T14:10:55.452Z,49.85
2023-04-22T14:13:30.505Z,50.33
2023-04-22T14:15:57.867Z,50.88
2023-04-22T14:18:32.502Z,50.79
2023-04-22T14:21:05.456Z,51.80
2023-04-22T14:23:39.473Z,52.94
2023-04-22T14:26:13.089Z,54.46
2023-04-22T14:28:48.463Z,53.14
2023-04-22T14:31:15.428Z,58.09
2023-04-22T14:33:48.529Z,57.71
2023-04-22T14:36:16.158Z,58.04
2023-04-22T14:38:49.469Z,57.05
2023-04-22T14:41:23.537Z,56.48
2023-04-22T14:43:50.605Z,55.16
2023-04-22T14:46:23.684Z,54.93
2023-04-22T14:48:57.488Z,54.97
2023-04-22T14:51:24.319Z,56.40
2023-04-22T14:53:58.644Z,56.17
2023-04-22T14:56:32.567Z,58.65
2023-04-22T14:58:59.507Z,62.40
2023-04-22T15:01:26.363Z,64.16
2023-04-22T15:03:59.667Z,64.18
2023-04-22T15:06:27.802Z,63.70
2023-04-22T15:09:01.539Z,63.49
2023-04-22T15:11:34.741Z,62.78
2023-04-22T15:14:16.047Z,63.67
2023-04-22T15:16:50.615Z,65.41
2023-04-22T15:19:17.555Z,67.58
2023-04-22T15:21:44.451Z,69.39
2023-04-22T15:24:17.552Z,71.23
2023-04-22T15:26:44.413Z,74.24
2023-04-22T15:29:18.529Z,74.89
2023-04-22T15:31:45.820Z,76.04
2023-04-22T15:34:19.593Z,77.13
2023-04-22T15:36:46.665Z,77.90
2023-04-22T15:39:19.552Z,78.63
2023-04-22T15:41:53.564Z,78.24
2023-04-22T15:44:28.077Z,79.03
2023-04-22T15:46:55.265Z,79.84
2023-04-22T15:49:28.538Z,79.33
2023-04-22T15:52:01.553Z,79.72
2023-04-22T15:54:34.582Z,79.62
2023-04-22T15:57:08.581Z,80.58
2023-04-22T15:59:35.385Z,80.49
2023-04-22T16:02:08.812Z,80.17
2023-04-22T16:04:36.496Z,79.87
2023-04-22T16:07:10.642Z,80.12
2023-04-22T16:09:37.520Z,80.95
2023-04-22T16:12:17.514Z,80.56
2023-04-22T16:14:44.798Z,81.27
2023-04-22T16:17:18.572Z,81.81
2023-04-22T16:19:45.523Z,81.75
2023-04-22T16:22:18.557Z,81.44
2023-04-22T16:24:45.299Z,81.61
2023-04-22T16:27:22.605Z,80.85
2023-04-22T16:29:55.560Z,82.42
2023-04-22T16:32:29.597Z,81.43
2023-04-22T16:34:56.547Z,81.71
2023-04-22T16:37:29.694Z,82.23
2023-04-22T16:40:03.542Z,82.61
2023-04-22T16:42:30.332Z,81.30
2023-04-22T16:45:03.523Z,82.76
2023-04-22T16:47:30.237Z,82.57
2023-04-22T16:50:03.619Z,82.84
2023-04-22T16:52:31.282Z,82.71
2023-04-22T16:55:04.606Z,83.92
2023-04-22T16:57:32.122Z,84.60
2023-04-22T17:00:05.620Z,84.95
2023-04-22T17:02:33.397Z,85.10
2023-04-22T17:05:04.584Z,85.04
2023-04-22T17:07:37.621Z,85.53
2023-04-22T17:10:04.796Z,85.68
2023-04-22T17:12:47.004Z,85.77
2023-04-22T17:15:14.338Z,86.52
2023-04-22T17:17:48.673Z,86.67
2023-04-22T17:20:15.717Z,86.46
2023-04-22T17:22:48.626Z,87.06
2023-04-22T17:25:21.610Z,86.94
2023-04-22T17:27:48.478Z,86.89
2023-04-22T17:30:21.629Z,86.85
2023-04-22T17:32:54.574Z,86.65
2023-04-22T17:35:21.368Z,87.04
2023-04-22T17:37:54.634Z,87.02
2023-04-22T17:40:22.331Z,87.68
2023-04-22T17:42:49.137Z,88.14
2023-04-22T17:45:22.651Z,88.13
2023-04-22T17:47:49.677Z,87.47
2023-04-22T17:50:22.603Z,88.59
2023-04-22T17:52:49.481Z,88.95
2023-04-22T17:55:22.696Z,88.33
2023-04-22T17:57:49.416Z,88.90
2023-04-22T18:00:23.693Z,88.17
2023-04-22T18:02:57.783Z,89.10
2023-04-22T18:05:25.560Z,89.33
2023-04-22T18:07:59.574Z,89.38
2023-04-22T18:10:26.572Z,89.87
2023-04-22T18:12:59.610Z,89.53
2023-04-22T18:15:26.513Z,90.01
2023-04-22T18:17:59.765Z,89.80
2023-04-22T18:20:26.683Z,89.93
2023-04-22T18:23:00.605Z,90.03
2023-04-22T18:25:27.727Z,90.52
2023-04-22T18:28:01.723Z,90.34
2023-04-22T18:30:28.997Z,90.38
2023-04-22T18:32:57.682Z,89.52
2023-04-22T18:35:31.616Z,91.00
2023-04-22T18:37:58.369Z,90.85
2023-04-22T18:40:25.156Z,90.93
2023-04-22T18:42:58.706Z,91.17
2023-04-22T18:45:31.616Z,91.37
2023-04-22T18:47:59.189Z,91.48
2023-04-22T18:50:32.638Z,91.46
2023-04-22T18:52:59.442Z,91.21
2023-04-22T18:55:32.695Z,91.26
2023-04-22T18:57:59.656Z,91.54
2023-04-22T19:00:33.652Z,91.59
2023-04-22T19:03:00.616Z,91.75
2023-04-22T19:05:33.610Z,91.46
2023-04-22T19:08:06.668Z,91.60
2023-04-22T19:10:40.848Z,91.78
2023-04-22T19:13:28.560Z,91.72
2023-04-22T19:16:03.716Z,91.18
2023-04-22T19:18:30.922Z,90.64
2023-04-22T19:21:04.682Z,90.60
2023-04-22T19:23:31.786Z,91.08
2023-04-22T19:26:04.666Z,91.24
2023-04-22T19:28:37.672Z,91.35
2023-04-22T19:31:06.261Z,91.14
2023-04-22T19:33:39.610Z,91.39
2023-04-22T19:36:06.443Z,91.44
2023-04-22T19:38:39.645Z,91.37
2023-04-22T19:41:08.708Z,91.49
2023-04-22T19:43:43.695Z,91.57
2023-04-22T19:46:23.671Z,91.30
2023-04-22T19:48:51.474Z,91.40
2023-04-22T19:51:25.727Z,91.68
2023-04-22T19:53:53.761Z,91.75
2023-04-22T19:56:27.668Z,92.26
2023-04-22T19:58:55.055Z,92.08
2023-04-22T20:01:30.583Z,92.02
2023-04-22T20:03:57.836Z,91.92
2023-04-22T20:06:32.694Z,92.39
2023-04-22T20:09:00.029Z,91.93
2023-04-22T20:11:46.660Z,92.04
2023-04-22T20:14:20.710Z,91.91
2023-04-22T20:16:48.045Z,92.04
2023-04-22T20:19:21.698Z,91.89
2023-04-22T20:21:49.192Z,91.99
2023-04-22T20:24:26.692Z,91.78
2023-04-22T20:26:54.117Z,92.13
2023-04-22T20:29:28.678Z,92.15
2023-04-22T20:31:55.978Z,92.38
2023-04-22T20:34:29.742Z,92.36
2023-04-22T20:37:02.722Z,92.37
2023-04-22T20:39:36.638Z,92.42
2023-04-22T20:42:03.980Z,92.35
2023-04-22T20:44:37.703Z,92.34
2023-04-22T20:47:04.566Z,92.23
2023-04-22T20:49:37.751Z,92.26
2023-04-22T20:52:10.704Z,92.09
2023-04-22T20:54:37.794Z,92.54
2023-04-22T20:57:12.751Z,92.22
2023-04-22T20:59:39.475Z,92.22
2023-04-22T21:02:13.756Z,92.60
2023-04-22T21:04:41.327Z,92.27
2023-04-22T21:07:18.713Z,92.27
2023-04-22T21:09:45.726Z,92.23
2023-04-22T21:12:25.791Z,92.29
2023-04-22T21:14:59.832Z,92.28
2023-04-22T21:17:37.734Z,92.11
2023-04-22T21:20:05.864Z,92.19
2023-04-22T21:22:39.711Z,92.19
2023-04-22T21:25:13.817Z,92.19
2023-04-22T21:27:47.699Z,92.42
2023-04-22T21:30:21.976Z,92.18
2023-04-22T21:32:48.766Z,92.52
2023-04-22T21:35:23.844Z,92.06
2023-04-22T21:37:52.391Z,92.04
2023-04-22T21:40:25.750Z,92.04
2023-04-22T21:42:52.559Z,92.01
2023-04-22T21:45:25.897Z,92.17
2023-04-22T21:47:52.813Z,91.60
2023-04-22T21:50:26.754Z,91.86
2023-04-22T21:52:53.602Z,91.53
2023-04-22T21:55:26.701Z,91.63
2023-04-22T21:57:53.415Z,91.64
2023-04-22T22:00:26.893Z,91.30
2023-04-22T22:02:54.125Z,91.31
2023-04-22T22:05:21.102Z,91.28
2023-04-22T22:07:55.750Z,91.35
2023-04-22T22:10:22.988Z,91.16
2023-04-22T22:13:02.808Z,91.19
2023-04-22T22:15:29.551Z,91.10
2023-04-22T22:18:02.821Z,90.98
2023-04-22T22:20:29.962Z,90.91
2023-04-22T22:23:02.782Z,91.01
2023-04-22T22:25:29.484Z,91.05
2023-04-22T22:28:02.788Z,90.98
2023-04-22T22:30:30.270Z,90.86
2023-04-22T22:33:03.801Z,91.08
2023-04-22T22:35:30.618Z,91.63
2023-04-22T22:38:03.714Z,90.95
2023-04-22T22:40:36.745Z,91.34
2023-04-22T22:43:03.552Z,91.56
2023-04-22T22:45:36.711Z,91.23
2023-04-22T22:48:03.583Z,91.47
2023-04-22T22:50:36.749Z,91.59
2023-04-22T22:53:03.521Z,91.40
2023-04-22T22:55:36.755Z,91.36
2023-04-22T22:58:09.824Z,91.82
2023-04-22T23:00:43.747Z,91.85
2023-04-22T23:03:19.467Z,92.00
2023-04-22T23:05:46.813Z,91.50
2023-04-22T23:08:19.751Z,91.25
2023-04-22T23:10:46.549Z,91.44
2023-04-22T23:13:27.833Z,91.75
2023-04-22T23:15:54.541Z,91.78
2023-04-22T23:18:27.734Z,91.92
2023-04-22T23:20:54.913Z,92.08
2023-04-22T23:23:29.775Z,91.64
2023-04-22T23:25:57.392Z,91.52
2023-04-22T23:28:24.375Z,91.60
2023-04-22T23:30:58.763Z,91.72
2023-04-22T23:33:26.656Z,91.67
2023-04-22T23:35:59.753Z,91.58
2023-04-22T23:38:27.676Z,91.70
2023-04-22T23:41:00.807Z,91.80
2023-04-22T23:43:33.784Z,91.96
2023-04-22T23:46:06.807Z,91.85
2023-04-22T23:48:33.623Z,92.50
2023-04-22T23:51:06.838Z,91.86
2023-04-22T23:53:33.529Z,92.09
2023-04-22T23:56:07.748Z,92.07
2023-04-22T23:58:34.665Z,92.01
